Time;durP1;ratioP1;P1;durP2;ratioP2;P2;SDS_P1;SDS_P2;PMS_P1;PMS_P2;Temp;Humidity;BMP_temperature;BMP_pressure;BME280_temperature;BME280_humidity;BME280_pressure;Samples;Min_cycle;Max_cycle;Signal;HPM_P1;HPM_P2
2023/07/08 00:00:28;;;;;;;8.37;3.33;;;18.40;78.60;;;;;;5081422;28;20200;-72
2023/07/08 00:02:53;;;;;;;12.80;2.70;;;18.30;78.80;;;;;;5088674;28;20292;-72
2023/07/08 00:05:21;;;;;;;7.60;4.07;;;18.20;79.20;;;;;;5091601;28;20180;-73
2023/07/08 00:07:48;;;;;;;5.83;3.13;;;18.20;79.00;;;;;;5072200;28;20178;-73
2023/07/08 00:10:16;;;;;;;6.40;2.67;;;18.20;79.40;;;;;;5068978;28;20423;-73
2023/07/08 00:12:43;;;;;;;10.17;3.47;;;18.10;79.20;;;;;;5088936;28;20414;-72
2023/07/08 00:15:09;;;;;;;6.47;3.40;;;18.10;80.30;;;;;;5082836;28;20415;-72
2023/07/08 00:17:36;;;;;;;6.60;2.60;;;18.00;79.80;;;;;;5085767;28;20450;-73
2023/07/08 00:20:08;;;;;;;5.00;2.87;;;17.90;80.10;;;;;;5082672;28;20466;-72
2023/07/08 00:22:36;;;;;;;11.23;3.87;;;17.90;80.80;;;;;;5082565;28;20450;-72
2023/07/08 00:25:01;;;;;;;6.70;3.10;;;17.80;80.80;;;;;;5072589;28;20419;-73
2023/07/08 00:27:27;;;;;;;7.83;3.60;;;17.80;81.10;;;;;;5091092;28;20406;-73
2023/07/08 00:29:52;;;;;;;7.67;3.73;;;17.80;81.60;;;;;;5091844;28;20556;-73
2023/07/08 00:32:18;;;;;;;11.73;4.10;;;17.70;81.80;;;;;;5090522;28;20262;-73
2023/07/08 00:34:43;;;;;;;4.00;2.33;;;17.70;82.20;;;;;;5091618;28;20616;-72
2023/07/08 00:37:12;;;;;;;6.27;3.30;;;17.60;82.90;;;;;;5090912;28;20288;-73
2023/07/08 00:39:38;;;;;;;10.00;3.47;;;17.60;83.00;;;;;;5091160;28;20197;-73
2023/07/08 00:42:30;;;;;;;7.00;3.63;;;17.50;82.90;;;;;;5090845;28;20426;-73
2023/07/08 00:44:56;;;;;;;8.30;3.07;;;17.40;83.30;;;;;;5081929;28;20431;-73
2023/07/08 00:47:22;;;;;;;8.20;3.20;;;17.40;84.10;;;;;;5080629;28;20419;-73
2023/07/08 00:50:00;;;;;;;10.57;4.00;;;17.40;84.20;;;;;;5091490;28;20261;-73
2023/07/08 00:52:28;;;;;;;5.03;2.67;;;17.30;84.40;;;;;;5090670;28;20422;-73
2023/07/08 00:54:59;;;;;;;8.60;3.67;;;17.20;84.70;;;;;;5090084;28;20429;-73
2023/07/08 00:57:29;;;;;;;9.33;4.10;;;17.30;84.70;;;;;;5091349;28;20411;-73
2023/07/08 01:00:00;;;;;;;8.43;3.07;;;17.20;84.80;;;;;;5090789;28;20573;-73
2023/07/08 01:02:27;;;;;;;4.70;3.00;;;17.10;85.70;;;;;;5089808;28;20413;-73
2023/07/08 01:04:59;;;;;;;10.83;2.80;;;17.10;86.10;;;;;;5082381;28;20422;-73
2023/07/08 01:07:26;;;;;;;9.70;3.33;;;17.00;86.20;;;;;;5068915;28;20454;-73
2023/07/08 01:09:58;;;;;;;6.57;2.73;;;17.00;86.50;;;;;;5067836;28;20430;-73
2023/07/08 01:12:29;;;;;;;8.83;3.50;;;17.00;86.60;;;;;;5076749;28;20417;-73
2023/07/08 01:14:55;;;;;;;6.17;3.63;;;16.90;86.80;;;;;;5083934;28;20508;-73
2023/07/08 01:17:22;;;;;;;7.93;3.43;;;17.00;87.20;;;;;;5085252;28;20418;-73
2023/07/08 01:19:49;;;;;;;7.00;3.37;;;16.90;87.70;;;;;;5080164;28;20477;-72
2023/07/08 01:22:14;;;;;;;7.07;3.20;;;16.80;88.80;;;;;;5083568;28;20427;-73
2023/07/08 01:24:43;;;;;;;5.50;3.00;;;16.90;88.60;;;;;;5075792;28;20411;-73
2023/07/08 01:27:13;;;;;;;6.20;3.07;;;16.80;88.90;;;;;;5087319;28;20217;-73
2023/07/08 01:29:38;;;;;;;8.40;2.77;;;16.70;89.30;;;;;;5091084;28;20425;-73
2023/07/08 01:32:05;;;;;;;7.73;3.47;;;16.60;89.80;;;;;;5089820;28;20422;-73
2023/07/08 01:34:36;;;;;;;8.60;3.47;;;16.70;90.00;;;;;;5090948;28;20265;-73
2023/07/08 01:37:04;;;;;;;12.60;4.50;;;16.60;90.20;;;;;;5090093;28;20422;-73
2023/07/08 01:39:31;;;;;;;7.67;3.63;;;16.60;90.30;;;;;;5090833;28;21129;-73
2023/07/08 01:41:57;;;;;;;4.77;2.60;;;16.60;90.00;;;;;;5089995;28;20411;-73
2023/07/08 01:44:36;;;;;;;9.00;3.17;;;16.50;89.90;;;;;;5084142;28;20482;-73
2023/07/08 01:47:15;;;;;;;8.23;3.73;;;16.50;89.30;;;;;;5090338;28;20188;-73
2023/07/08 01:49:42;;;;;;;8.10;3.17;;;16.40;89.70;;;;;;5090917;28;20410;-73
2023/07/08 01:52:10;;;;;;;15.33;4.40;;;16.40;89.90;;;;;;5089789;28;20426;-73
2023/07/08 01:54:35;;;;;;;12.80;2.43;;;16.30;89.80;;;;;;5089786;28;20419;-73
2023/07/08 01:57:02;;;;;;;14.40;4.30;;;16.30;90.30;;;;;;5090727;28;20743;-73
2023/07/08 01:59:28;;;;;;;5.40;2.60;;;16.30;90.30;;;;;;5085775;28;20197;-73
2023/07/08 02:01:54;;;;;;;9.33;3.00;;;16.30;90.40;;;;;;5067655;28;20430;-73
2023/07/08 02:04:24;;;;;;;4.57;2.73;;;16.20;90.50;;;;;;5074942;28;20169;-73
2023/07/08 02:06:58;;;;;;;11.50;3.50;;;16.30;90.50;;;;;;5072085;28;20415;-73
2023/07/08 02:09:24;;;;;;;7.87;3.63;;;16.20;90.60;;;;;;5064761;28;20426;-73
2023/07/08 02:11:51;;;;;;;10.17;3.47;;;16.20;90.60;;;;;;5080418;28;20475;-73
2023/07/08 02:14:16;;;;;;;8.53;2.80;;;16.30;90.70;;;;;;5088624;28;20930;-73
2023/07/08 02:16:42;;;;;;;6.40;3.40;;;16.30;90.50;;;;;;5080928;28;20540;-73
2023/07/08 02:19:09;;;;;;;5.73;2.83;;;16.30;90.90;;;;;;5073932;28;20645;-73
2023/07/08 02:21:35;;;;;;;4.87;2.97;;;16.30;91.20;;;;;;5080676;28;20199;-73
2023/07/08 02:24:01;;;;;;;4.77;2.93;;;16.30;90.70;;;;;;5074459;28;20418;-73
2023/07/08 02:26:27;;;;;;;5.23;2.80;;;16.30;90.90;;;;;;5082956;28;20195;-73
2023/07/08 02:28:52;;;;;;;8.23;3.63;;;16.30;90.80;;;;;;5094506;28;20754;-73
2023/07/08 02:31:18;;;;;;;7.67;3.27;;;16.30;90.80;;;;;;5094228;28;20188;-73
2023/07/08 02:33:43;;;;;;;8.00;3.20;;;16.30;91.10;;;;;;5094815;28;20184;-73
2023/07/08 02:36:09;;;;;;;7.00;3.50;;;16.20;91.10;;;;;;5095406;28;20188;-73
2023/07/08 02:38:35;;;;;;;9.30;3.97;;;16.20;91.00;;;;;;5096024;28;20188;-73
2023/07/08 02:41:00;;;;;;;10.23;3.60;;;16.10;91.20;;;;;;5094837;28;20204;-73
2023/07/08 02:43:26;;;;;;;9.47;4.10;;;16.10;91.10;;;;;;5093359;28;20215;-73
2023/07/08 02:45:52;;;;;;;8.83;3.50;;;16.20;90.80;;;;;;5085588;28;21016;-73
2023/07/08 02:48:20;;;;;;;5.40;2.50;;;16.30;90.80;;;;;;5093568;28;20177;-73
2023/07/08 02:50:46;;;;;;;7.37;3.73;;;16.30;90.90;;;;;;5093249;28;20558;-73
2023/07/08 02:53:12;;;;;;;8.07;4.87;;;16.20;90.70;;;;;;5092318;28;20914;-73
2023/07/08 02:55:42;;;;;;;7.20;3.70;;;16.30;90.40;;;;;;5093775;28;20765;-73
2023/07/08 02:58:11;;;;;;;10.20;2.97;;;16.40;90.30;;;;;;5092954;28;20449;-73
2023/07/08 03:00:37;;;;;;;10.80;3.67;;;16.30;90.90;;;;;;5093006;28;20533;-73
2023/07/08 03:03:03;;;;;;;11.97;4.37;;;16.30;90.90;;;;;;5092935;28;20428;-73
2023/07/08 03:05:30;;;;;;;9.33;3.93;;;16.30;90.40;;;;;;5093364;28;20429;-73
2023/07/08 03:07:56;;;;;;;11.33;3.33;;;16.40;90.60;;;;;;5070637;28;20562;-73
2023/07/08 03:10:22;;;;;;;7.80;4.03;;;16.40;90.50;;;;;;5073926;28;20498;-73
2023/07/08 03:12:47;;;;;;;6.60;2.73;;;16.30;90.90;;;;;;5091817;28;20187;-73
2023/07/08 03:15:13;;;;;;;7.90;3.50;;;16.30;91.00;;;;;;5083634;28;20648;-73
2023/07/08 03:17:39;;;;;;;4.30;2.90;;;16.20;91.40;;;;;;5088005;28;20185;-72
2023/07/08 03:20:08;;;;;;;7.83;3.50;;;16.10;91.30;;;;;;5085604;28;20215;-73
2023/07/08 03:22:33;;;;;;;11.20;3.83;;;16.10;91.60;;;;;;5085806;28;20185;-73
2023/07/08 03:24:59;;;;;;;6.80;3.03;;;16.10;91.70;;;;;;5085211;28;20415;-73
2023/07/08 03:27:25;;;;;;;11.80;4.30;;;16.10;91.90;;;;;;5086195;28;20174;-73
2023/07/08 03:29:50;;;;;;;5.67;2.70;;;16.00;92.10;;;;;;5075248;28;20246;-73
2023/07/08 03:32:16;;;;;;;7.23;3.03;;;16.00;91.90;;;;;;5077283;28;20545;-73
2023/07/08 03:34:42;;;;;;;10.67;3.87;;;15.90;91.90;;;;;;5084941;28;20190;-73
2023/07/08 03:37:09;;;;;;;5.57;2.43;;;15.80;92.80;;;;;;5091749;28;20227;-73
2023/07/08 03:39:35;;;;;;;9.43;4.40;;;15.90;92.30;;;;;;5091680;28;20258;-73
2023/07/08 03:42:01;;;;;;;9.13;3.10;;;16.00;92.30;;;;;;5092007;28;20406;-73
2023/07/08 03:44:27;;;;;;;6.93;2.93;;;16.00;92.40;;;;;;5089025;28;20452;-73
2023/07/08 03:46:52;;;;;;;5.90;3.30;;;16.00;92.50;;;;;;5091278;28;20418;-73
2023/07/08 03:49:23;;;;;;;7.90;3.60;;;16.10;92.10;;;;;;5092365;28;20231;-73
2023/07/08 03:51:53;;;;;;;10.30;3.37;;;16.20;92.40;;;;;;5091566;28;20215;-73
2023/07/08 03:54:20;;;;;;;11.83;4.17;;;16.20;92.40;;;;;;5092412;28;20411;-73
2023/07/08 03:56:46;;;;;;;8.43;4.20;;;16.20;92.50;;;;;;5092795;28;20426;-73
2023/07/08 03:59:11;;;;;;;6.53;2.60;;;16.40;92.20;;;;;;5092291;28;20426;-73
2023/07/08 04:01:40;;;;;;;6.77;3.00;;;16.40;92.20;;;;;;5091730;28;20176;-73
2023/07/08 04:04:08;;;;;;;8.03;3.30;;;16.40;92.30;;;;;;5092304;28;20903;-73
2023/07/08 04:06:34;;;;;;;15.63;3.33;;;16.50;92.10;;;;;;5086424;28;20422;-73
2023/07/08 04:09:00;;;;;;;10.50;4.20;;;16.60;91.80;;;;;;5065488;28;20407;-73
2023/07/08 04:11:27;;;;;;;9.40;4.07;;;16.60;91.70;;;;;;5080338;28;20514;-73
2023/07/08 04:13:52;;;;;;;6.63;3.30;;;16.70;91.60;;;;;;5091952;28;20637;-73
2023/07/08 04:16:31;;;;;;;9.33;3.70;;;16.70;91.40;;;;;;5080737;28;20446;-73
2023/07/08 04:18:57;;;;;;;9.23;4.00;;;16.80;91.30;;;;;;5079998;28;20278;-73
2023/07/08 04:21:25;;;;;;;8.00;3.50;;;16.90;90.90;;;;;;5090769;28;20553;-73
2023/07/08 04:23:50;;;;;;;10.30;4.50;;;17.00;90.60;;;;;;5075317;28;20251;-73
2023/07/08 04:26:16;;;;;;;7.63;3.57;;;17.10;90.20;;;;;;5083672;28;20498;-73
2023/07/08 04:28:42;;;;;;;7.17;3.57;;;17.20;90.30;;;;;;5091692;28;20169;-73
2023/07/08 04:31:08;;;;;;;6.57;3.23;;;17.20;90.10;;;;;;5091465;28;20728;-73
2023/07/08 04:33:34;;;;;;;9.83;3.07;;;17.30;90.50;;;;;;5091249;28;20629;-73
2023/07/08 04:35:59;;;;;;;4.93;2.67;;;17.30;90.70;;;;;;5091779;28;20838;-73
2023/07/08 04:38:25;;;;;;;5.00;2.70;;;17.40;90.90;;;;;;5089743;28;20217;-73
2023/07/08 04:40:52;;;;;;;8.03;4.07;;;17.50;90.60;;;;;;5091291;28;20346;-73
2023/07/08 04:43:19;;;;;;;8.97;3.80;;;17.60;90.60;;;;;;5091687;28;20460;-73
2023/07/08 04:45:50;;;;;;;7.10;3.23;;;17.70;90.60;;;;;;5089953;28;20486;-73
2023/07/08 04:48:16;;;;;;;7.83;3.00;;;17.80;91.00;;;;;;5091330;28;20411;-73
2023/07/08 04:50:44;;;;;;;10.67;4.10;;;17.80;90.40;;;;;;5090673;28;20423;-73
2023/07/08 04:53:11;;;;;;;9.70;3.97;;;17.90;90.80;;;;;;5089848;28;20433;-73
2023/07/08 04:55:41;;;;;;;10.33;3.77;;;17.90;90.40;;;;;;5091392;28;20969;-73
2023/07/08 04:58:07;;;;;;;7.90;3.60;;;18.00;91.40;;;;;;5091184;28;20902;-73
2023/07/08 05:00:33;;;;;;;8.10;3.00;;;18.10;91.30;;;;;;5091055;28;20499;-73
2023/07/08 05:02:58;;;;;;;9.87;4.13;;;18.10;90.90;;;;;;5090363;28;20180;-73
2023/07/08 05:05:24;;;;;;;12.70;4.07;;;18.20;90.70;;;;;;5091265;28;20191;-73
2023/07/08 05:07:50;;;;;;;8.37;3.80;;;18.30;90.80;;;;;;5071040;28;20192;-73
2023/07/08 05:10:16;;;;;;;6.10;3.43;;;18.40;90.40;;;;;;5068200;28;20280;-73
2023/07/08 05:12:42;;;;;;;14.93;4.07;;;18.50;90.30;;;;;;5087641;28;20192;-73
2023/07/08 05:15:09;;;;;;;5.57;2.97;;;18.60;88.10;;;;;;5084978;28;20462;-73
2023/07/08 05:17:34;;;;;;;6.53;3.30;;;18.70;88.50;;;;;;5084844;28;20427;-73
2023/07/08 05:20:00;;;;;;;6.60;3.20;;;18.80;88.10;;;;;;5081580;28;20511;-73
2023/07/08 05:22:27;;;;;;;7.23;3.70;;;19.00;87.10;;;;;;5082805;28;20185;-73
2023/07/08 05:24:56;;;;;;;7.23;3.70;;;19.10;88.10;;;;;;5076158;28;20199;-73
2023/07/08 05:27:25;;;;;;;10.13;4.10;;;19.20;87.40;;;;;;5089414;28;20476;-73
2023/07/08 05:29:51;;;;;;;7.23;3.00;;;19.30;85.50;;;;;;5091216;28;20497;-73
2023/07/08 05:32:17;;;;;;;5.80;3.53;;;19.50;86.20;;;;;;5090057;28;20534;-73
2023/07/08 05:34:43;;;;;;;5.30;2.67;;;19.60;87.90;;;;;;5091100;28;20188;-73
2023/07/08 05:37:09;;;;;;;6.60;3.17;;;19.60;88.30;;;;;;5089874;28;20422;-73
2023/07/08 05:39:35;;;;;;;6.97;3.23;;;19.70;89.10;;;;;;5090252;28;20552;-73
2023/07/08 05:42:01;;;;;;;8.10;3.57;;;19.80;89.50;;;;;;5090185;28;20513;-73
2023/07/08 05:44:26;;;;;;;15.57;5.00;;;19.90;87.20;;;;;;5090685;28;20188;-73
2023/07/08 05:46:52;;;;;;;11.03;5.20;;;19.90;84.70;;;;;;5089461;28;20184;-73
2023/07/08 05:49:17;;;;;;;10.50;4.57;;;20.00;82.30;;;;;;5091293;28;20180;-73
2023/07/08 05:51:44;;;;;;;8.80;3.63;;;20.30;80.80;;;;;;5089611;28;20181;-73
2023/07/08 05:54:10;;;;;;;11.73;4.40;;;20.30;81.30;;;;;;5090135;28;20227;-73
2023/07/08 05:56:36;;;;;;;7.50;3.43;;;20.40;81.00;;;;;;5090506;28;20452;-73
2023/07/08 05:59:02;;;;;;;5.80;3.00;;;20.40;80.90;;;;;;5089488;28;20465;-73
2023/07/08 06:01:27;;;;;;;6.90;3.43;;;20.50;80.50;;;;;;5090024;28;20306;-72
2023/07/08 06:03:53;;;;;;;9.63;3.20;;;20.50;80.40;;;;;;5094488;28;20510;-73
2023/07/08 06:06:18;;;;;;;8.03;3.17;;;20.60;81.50;;;;;;5090860;28;20187;-72
2023/07/08 06:08:44;;;;;;;14.50;4.33;;;20.60;82.50;;;;;;5067217;28;20213;-72
2023/07/08 06:11:10;;;;;;;7.57;2.90;;;20.70;81.40;;;;;;5080846;28;20621;-73
2023/07/08 06:13:35;;;;;;;11.90;3.57;;;20.80;81.20;;;;;;5094800;28;20195;-73
2023/07/08 06:16:01;;;;;;;5.03;2.60;;;20.80;82.00;;;;;;5086010;28;20185;-73
2023/07/08 06:18:26;;;;;;;4.63;2.90;;;20.90;82.20;;;;;;5083696;28;20193;-73
2023/07/08 06:20:57;;;;;;;4.43;2.63;;;21.00;83.30;;;;;;5091799;28;20251;-73
2023/07/08 06:23:24;;;;;;;6.63;3.03;;;21.00;83.70;;;;;;5078486;28;20212;-73
2023/07/08 06:25:50;;;;;;;6.80;3.37;;;21.00;81.90;;;;;;5085658;28;20865;-73
2023/07/08 06:28:16;;;;;;;5.53;2.80;;;21.10;80.80;;;;;;5093921;28;20463;-73
2023/07/08 06:30:41;;;;;;;5.07;2.63;;;21.10;79.50;;;;;;5093590;28;20458;-72
2023/07/08 06:33:07;;;;;;;5.00;2.60;;;21.20;79.50;;;;;;5093682;28;20200;-73
2023/07/08 06:35:32;;;;;;;7.10;3.10;;;21.10;79.90;;;;;;5093904;28;20196;-73
2023/07/08 06:37:58;;;;;;;6.90;3.50;;;21.20;80.10;;;;;;5092334;28;20203;-73
2023/07/08 06:40:24;;;;;;;9.53;3.17;;;21.30;80.30;;;;;;5093570;28;20208;-72
2023/07/08 06:42:49;;;;;;;8.80;2.23;;;21.30;80.70;;;;;;5093094;28;20270;-72
2023/07/08 06:45:15;;;;;;;10.70;2.93;;;21.30;81.10;;;;;;5092457;28;20305;-73
2023/07/08 06:47:40;;;;;;;8.10;2.97;;;21.30;80.70;;;;;;5093417;28;20211;-72
2023/07/08 06:50:07;;;;;;;9.63;3.17;;;21.30;81.50;;;;;;5093822;28;20269;-73
2023/07/08 06:52:35;;;;;;;6.27;3.07;;;21.30;81.80;;;;;;5092946;28;20256;-73
2023/07/08 06:55:01;;;;;;;7.00;2.83;;;21.50;81.30;;;;;;5092956;28;20436;-73
2023/07/08 06:57:27;;;;;;;5.53;2.63;;;21.60;81.30;;;;;;5093928;28;20422;-73
2023/07/08 06:59:53;;;;;;;8.10;2.50;;;21.60;81.30;;;;;;5093780;28;20519;-73
2023/07/08 07:02:19;;;;;;;4.80;2.70;;;21.70;80.80;;;;;;5093000;28;20183;-73
2023/07/08 07:04:45;;;;;;;7.53;2.90;;;21.80;81.40;;;;;;5093832;28;20211;-73
2023/07/08 07:07:11;;;;;;;5.10;3.00;;;21.70;81.60;;;;;;5082899;28;20443;-73
2023/07/08 07:09:37;;;;;;;15.73;2.87;;;21.70;81.80;;;;;;5068744;28;20181;-71
2023/07/08 07:12:03;;;;;;;20.73;4.07;;;21.80;81.80;;;;;;5085602;28;20999;-71
2023/07/08 07:14:28;;;;;;;9.10;2.70;;;21.80;82.20;;;;;;5092956;28;20188;-71
2023/07/08 07:16:54;;;;;;;17.57;2.80;;;21.90;82.20;;;;;;5085695;28;20208;-72
2023/07/08 07:19:21;;;;;;;7.23;3.73;;;22.00;82.90;;;;;;5080768;28;20207;-71
2023/07/08 07:21:47;;;;;;;3.87;2.23;;;22.10;83.30;;;;;;5092529;28;20628;-71
2023/07/08 07:24:12;;;;;;;6.77;3.30;;;22.20;82.90;;;;;;5072919;28;20430;-71
2023/07/08 07:26:38;;;;;;;7.83;2.77;;;22.30;82.60;;;;;;5093401;28;20192;-71
2023/07/08 07:29:04;;;;;;;3.60;1.83;;;22.30;82.90;;;;;;5093554;28;20183;-71
2023/07/08 07:31:30;;;;;;;9.27;3.30;;;22.40;81.80;;;;;;5092757;28;20188;-71
2023/07/08 07:33:56;;;;;;;8.83;2.20;;;22.50;82.40;;;;;;5092789;28;20187;-71
2023/07/08 07:36:22;;;;;;;6.97;2.70;;;22.50;81.10;;;;;;5075705;28;20774;-71
2023/07/08 07:38:47;;;;;;;5.93;2.83;;;22.70;81.40;;;;;;5068252;28;20419;-71
2023/07/08 07:41:13;;;;;;;5.40;2.83;;;22.70;79.10;;;;;;5070703;28;20289;-71
2023/07/08 07:43:39;;;;;;;2.93;1.40;;;22.70;79.30;;;;;;5069643;28;20181;-71
2023/07/08 07:46:05;;;;;;;5.50;2.97;;;22.70;79.30;;;;;;5076919;28;20168;-71
2023/07/08 07:48:31;;;;;;;7.50;2.97;;;22.70;79.30;;;;;;5091355;28;20217;-71
2023/07/08 07:50:57;;;;;;;6.77;2.70;;;22.70;79.20;;;;;;5087547;28;20422;-71
2023/07/08 07:53:23;;;;;;;6.70;2.47;;;22.80;79.60;;;;;;5063798;28;20434;-71
2023/07/08 07:55:59;;;;;;;8.50;2.50;;;22.80;79.10;;;;;;5073478;28;20185;-71
2023/07/08 07:58:26;;;;;;;5.57;2.23;;;22.90;79.80;;;;;;5065918;28;20193;-71
2023/07/08 08:00:51;;;;;;;16.53;3.00;;;23.00;79.80;;;;;;5072677;28;21315;-71
2023/07/08 08:03:17;;;;;;;5.00;2.60;;;23.00;80.00;;;;;;5066744;28;20449;-71
2023/07/08 08:05:43;;;;;;;6.43;2.73;;;23.00;79.70;;;;;;5067978;28;20176;-71
2023/07/08 08:08:08;;;;;;;8.47;2.50;;;23.00;80.20;;;;;;5062929;28;20177;-71
2023/07/08 08:10:35;;;;;;;6.13;2.40;;;23.00;79.70;;;;;;5072191;28;20181;-71
2023/07/08 08:13:01;;;;;;;6.83;2.43;;;23.00;80.80;;;;;;5072008;28;20203;-71
2023/07/08 08:15:27;;;;;;;7.10;2.50;;;23.10;80.50;;;;;;5059297;28;20903;-71
2023/07/08 08:17:53;;;;;;;23.10;2.80;;;23.30;80.30;;;;;;5070657;28;20463;-71
2023/07/08 08:20:19;;;;;;;6.83;3.03;;;23.60;79.00;;;;;;5084104;28;20525;-71
2023/07/08 08:22:45;;;;;;;4.93;2.77;;;23.80;78.50;;;;;;5068819;28;20299;-71
2023/07/08 08:25:11;;;;;;;5.67;2.20;;;24.40;77.00;;;;;;5070840;28;20914;-71
2023/07/08 08:27:37;;;;;;;4.90;2.23;;;25.30;75.30;;;;;;5071776;28;20520;-72
2023/07/08 08:30:05;;;;;;;5.83;2.80;;;26.30;73.00;;;;;;5071519;28;20214;-72
2023/07/08 08:32:30;;;;;;;3.28;2.03;;;27.40;69.70;;;;;;5070650;28;20192;-72
2023/07/08 08:34:56;;;;;;;5.10;2.15;;;28.00;67.90;;;;;;5071342;28;20192;-72
2023/07/08 08:37:22;;;;;;;5.18;2.35;;;28.80;64.90;;;;;;5070846;28;20806;-72
2023/07/08 08:39:47;;;;;;;5.95;2.20;;;28.80;63.40;;;;;;5071197;28;20219;-72
2023/07/08 08:42:23;;;;;;;5.20;1.95;;;28.60;65.10;;;;;;5070636;28;20176;-72
2023/07/08 08:44:48;;;;;;;7.88;2.45;;;29.30;63.60;;;;;;5073024;28;20176;-72
2023/07/08 08:47:32;;;;;;;2.67;1.35;;;28.90;61.60;;;;;;5082752;28;20173;-72
2023/07/08 08:50:03;;;;;;;4.05;2.17;;;28.20;62.50;;;;;;5071009;28;20185;-72
2023/07/08 08:52:29;;;;;;;5.68;1.80;;;27.70;63.70;;;;;;5069786;28;20192;-72
2023/07/08 08:54:55;;;;;;;3.20;1.90;;;27.00;66.90;;;;;;5070991;28;20203;-71
2023/07/08 08:57:40;;;;;;;5.20;1.83;;;26.70;66.60;;;;;;5070788;28;20686;-72
2023/07/08 09:00:10;;;;;;;7.18;3.05;;;26.70;66.30;;;;;;5059391;28;20211;-72
2023/07/08 09:03:14;;;;;;;3.63;1.80;;;26.60;66.60;;;;;;5070198;28;20571;-71
2023/07/08 09:05:40;;;;;;;4.13;1.33;;;26.90;65.50;;;;;;4995029;28;20229;-72
2023/07/08 09:08:06;;;;;;;4.50;1.48;;;27.40;63.00;;;;;;5050435;28;20572;-72
2023/07/08 09:10:45;;;;;;;5.38;1.50;;;28.00;63.50;;;;;;5070215;28;20187;-72
2023/07/08 09:13:25;;;;;;;2.25;0.98;;;28.80;62.30;;;;;;5070896;28;20200;-72
2023/07/08 09:16:04;;;;;;;8.23;2.08;;;29.50;60.10;;;;;;5072834;28;20635;-73
2023/07/08 09:18:52;;;;;;;3.92;2.17;;;30.50;58.10;;;;;;5080062;28;20271;-72
2023/07/08 09:21:33;;;;;;;3.80;2.08;;;30.50;58.70;;;;;;5057695;28;20215;-73
2023/07/08 09:24:04;;;;;;;3.65;2.08;;;30.90;57.90;;;;;;5057538;28;20263;-73
2023/07/08 09:26:32;;;;;;;5.07;1.85;;;31.20;57.10;;;;;;5070594;28;20189;-73
2023/07/08 09:28:58;;;;;;;4.35;2.08;;;31.00;57.40;;;;;;5070664;28;20529;-72
2023/07/08 09:31:27;;;;;;;4.07;2.10;;;31.40;56.70;;;;;;5070215;28;20593;-72
2023/07/08 09:34:22;;;;;;;2.65;1.10;;;31.30;55.80;;;;;;5070319;28;20690;-72
2023/07/08 09:36:49;;;;;;;4.60;2.30;;;30.70;56.60;;;;;;5088924;28;20179;-72
2023/07/08 09:39:20;;;;;;;3.33;1.33;;;30.30;58.10;;;;;;5084933;28;20208;-72
2023/07/08 09:41:48;;;;;;;2.42;1.27;;;30.10;58.30;;;;;;5074008;28;20176;-72
2023/07/08 09:44:26;;;;;;;4.72;2.25;;;29.60;58.70;;;;;;5064009;28;20173;-73
2023/07/08 09:46:55;;;;;;;4.32;2.42;;;29.80;60.00;;;;;;5073552;28;20183;-73
2023/07/08 09:49:27;;;;;;;9.35;2.45;;;29.60;59.60;;;;;;5074571;28;20183;-72
2023/07/08 09:51:53;;;;;;;3.80;1.88;;;29.00;59.70;;;;;;5062341;28;20267;-72
2023/07/08 09:54:22;;;;;;;3.95;1.75;;;29.40;59.60;;;;;;5074382;28;20180;-72
2023/07/08 09:57:11;;;;;;;5.72;1.85;;;29.90;59.50;;;;;;5074581;28;20204;-72
2023/07/08 09:59:47;;;;;;;6.55;2.35;;;30.30;58.70;;;;;;5074332;28;20196;-72
2023/07/08 10:02:35;;;;;;;3.15;1.60;;;30.40;58.30;;;;;;5073888;28;20501;-73
2023/07/08 10:05:14;;;;;;;3.97;1.55;;;30.80;58.40;;;;;;5063128;28;20569;-72
2023/07/08 10:07:39;;;;;;;3.33;1.35;;;32.00;56.20;;;;;;5073708;28;20326;-72
2023/07/08 10:10:10;;;;;;;16.05;1.80;;;31.70;56.70;;;;;;5071894;28;20259;-72
2023/07/08 10:12:41;;;;;;;3.10;1.70;;;31.10;57.10;;;;;;5089207;28;20184;-72
2023/07/08 10:15:24;;;;;;;2.10;1.48;;;31.00;57.60;;;;;;5082519;28;20181;-72
2023/07/08 10:17:50;;;;;;;3.88;1.80;;;31.30;56.80;;;;;;5087429;28;20527;-72
2023/07/08 10:20:15;;;;;;;4.90;1.63;;;31.60;56.10;;;;;;5072758;28;20204;-72
2023/07/08 10:22:51;;;;;;;3.58;1.55;;;31.40;56.40;;;;;;5070046;28;20183;-72
2023/07/08 10:25:43;;;;;;;2.97;1.85;;;30.80;57.00;;;;;;5081054;28;20176;-72
2023/07/08 10:28:44;;;;;;;3.08;1.75;;;30.90;57.60;;;;;;5082124;28;20230;-71
2023/07/08 10:31:36;;;;;;;8.07;1.63;;;30.40;56.80;;;;;;5069757;28;20196;-72
2023/07/08 10:34:17;;;;;;;5.97;2.60;;;30.10;58.20;;;;;;5059631;28;20216;-72
2023/07/08 10:36:48;;;;;;;17.27;2.58;;;29.90;58.50;;;;;;5072980;28;20215;-72
2023/07/08 10:39:19;;;;;;;11.07;1.73;;;30.00;58.20;;;;;;5073757;28;20181;-72
2023/07/08 10:41:53;;;;;;;2.90;1.45;;;30.00;59.00;;;;;;5072614;28;20184;-72
2023/07/08 10:44:42;;;;;;;3.22;1.50;;;30.20;58.20;;;;;;5073642;28;20633;-72
2023/07/08 10:47:45;;;;;;;8.55;2.20;;;30.10;58.50;;;;;;5061162;28;20177;-72
2023/07/08 10:50:33;;;;;;;4.07;1.67;;;30.10;58.90;;;;;;5080029;28;20476;-71
2023/07/08 10:53:27;;;;;;;3.22;1.48;;;30.00;58.80;;;;;;5088742;28;20880;-72
2023/07/08 10:56:01;;;;;;;9.55;1.40;;;30.00;59.50;;;;;;5080692;28;20637;-71
2023/07/08 10:58:35;;;;;;;3.88;1.23;;;29.90;57.70;;;;;;5073429;28;20237;-71
2023/07/08 11:01:07;;;;;;;3.55;1.50;;;30.10;57.90;;;;;;5072677;28;20208;-72
2023/07/08 11:04:00;;;;;;;5.15;1.63;;;30.30;57.00;;;;;;5072931;28;20649;-72
2023/07/08 11:06:48;;;;;;;3.15;1.25;;;30.20;56.00;;;;;;5072265;28;20203;-71
2023/07/08 11:09:27;;;;;;;4.93;1.70;;;30.20;56.90;;;;;;5067706;28;20636;-71
2023/07/08 11:11:59;;;;;;;3.33;1.27;;;30.20;56.00;;;;;;5072420;28;20172;-71
2023/07/08 11:14:46;;;;;;;3.63;1.17;;;30.40;56.10;;;;;;5072858;28;20833;-72
2023/07/08 11:17:32;;;;;;;2.55;1.30;;;30.80;54.80;;;;;;5074749;28;20230;-72
2023/07/08 11:20:03;;;;;;;2.60;1.38;;;30.40;54.40;;;;;;5061022;28;20216;-71
2023/07/08 11:22:31;;;;;;;4.22;1.30;;;30.60;53.40;;;;;;5068130;28;20169;-71
2023/07/08 11:24:58;;;;;;;3.60;1.13;;;30.60;52.80;;;;;;5072790;28;20180;-71
2023/07/08 11:27:31;;;;;;;6.80;1.90;;;30.70;51.90;;;;;;5091881;28;20245;-72
2023/07/08 11:30:06;;;;;;;7.70;1.80;;;30.60;52.80;;;;;;5093003;28;20199;-71
2023/07/08 11:32:33;;;;;;;3.13;1.80;;;30.60;54.10;;;;;;5059809;28;20207;-71
2023/07/08 11:35:04;;;;;;;3.20;1.65;;;30.70;54.30;;;;;;5072317;28;20692;-72
2023/07/08 11:37:30;;;;;;;13.70;4.22;;;30.80;52.10;;;;;;5072180;28;20192;-72
2023/07/08 11:40:19;;;;;;;6.38;3.15;;;30.90;53.90;;;;;;5072105;28;20664;-72
2023/07/08 11:42:49;;;;;;;3.40;1.83;;;31.00;52.40;;;;;;5071625;28;20188;-72
2023/07/08 11:45:17;;;;;;;13.18;1.80;;;31.00;51.60;;;;;;5072215;28;20208;-71
2023/07/08 11:47:48;;;;;;;3.05;1.40;;;30.90;51.80;;;;;;5072453;28;20184;-71
2023/07/08 11:50:22;;;;;;;9.40;1.83;;;30.70;53.60;;;;;;5071724;28;20181;-71
2023/07/08 11:52:53;;;;;;;3.40;1.40;;;30.60;52.60;;;;;;5071114;28;20177;-71
2023/07/08 11:55:34;;;;;;;2.95;1.30;;;30.50;53.40;;;;;;5080102;28;20187;-71
2023/07/08 11:58:00;;;;;;;3.35;1.67;;;30.90;52.80;;;;;;5065270;28;20714;-71
2023/07/08 12:00:29;;;;;;;3.08;1.25;;;31.10;53.00;;;;;;5091204;28;20208;-72
2023/07/08 12:02:58;;;;;;;4.13;1.48;;;31.30;52.40;;;;;;5074131;28;20180;-71
2023/07/08 12:05:31;;;;;;;3.25;1.25;;;31.30;51.70;;;;;;5072070;28;20180;-72
2023/07/08 12:07:58;;;;;;;3.15;1.13;;;31.30;51.70;;;;;;5066547;28;20637;-72
2023/07/08 12:10:39;;;;;;;3.35;1.67;;;31.30;51.20;;;;;;5069155;28;20188;-71
2023/07/08 12:13:13;;;;;;;4.47;1.30;;;31.50;51.80;;;;;;5058851;28;20180;-71
2023/07/08 12:15:38;;;;;;;5.20;1.40;;;31.80;50.10;;;;;;5071894;28;20552;-71
2023/07/08 12:18:13;;;;;;;3.25;1.30;;;32.10;49.90;;;;;;5071369;28;20180;-72
2023/07/08 12:20:40;;;;;;;2.80;0.85;;;32.20;49.50;;;;;;5082176;28;20619;-71
2023/07/08 12:23:14;;;;;;;3.05;1.40;;;32.10;49.50;;;;;;5059250;28;20173;-71
2023/07/08 12:25:40;;;;;;;3.30;1.23;;;32.00;51.00;;;;;;5069717;28;20199;-72
2023/07/08 12:28:06;;;;;;;2.13;1.20;;;32.00;50.50;;;;;;5071867;28;20684;-71
2023/07/08 12:30:32;;;;;;;2.35;0.98;;;32.00;49.30;;;;;;5076304;28;20236;-72
2023/07/08 12:33:02;;;;;;;2.22;1.02;;;32.20;49.40;;;;;;5079515;28;20185;-71
2023/07/08 12:35:30;;;;;;;3.35;1.38;;;32.10;49.30;;;;;;5071358;28;20181;-71
2023/07/08 12:38:00;;;;;;;5.43;1.38;;;32.20;48.90;;;;;;5070832;28;20177;-71
2023/07/08 12:40:27;;;;;;;2.35;0.98;;;32.40;48.10;;;;;;5077223;28;20299;-71
2023/07/08 12:42:54;;;;;;;5.25;1.15;;;32.50;47.90;;;;;;5077593;28;20612;-70
2023/07/08 12:45:21;;;;;;;3.63;1.70;;;32.40;47.70;;;;;;5058703;28;20637;-70
2023/07/08 12:47:48;;;;;;;2.15;1.08;;;32.10;48.30;;;;;;5071884;28;20191;-71
2023/07/08 12:50:14;;;;;;;3.97;1.45;;;32.00;48.50;;;;;;5071849;28;20181;-70
2023/07/08 12:52:40;;;;;;;2.20;1.05;;;31.90;48.10;;;;;;5070626;28;20263;-71
2023/07/08 12:55:10;;;;;;;3.47;2.13;;;32.10;48.40;;;;;;5071713;28;20184;-71